sensor_id;sensor_type;location;lat;lon;timestamp;temperature;humidity
57218;DHT22;43078;52.972;6.482;2023-04-24T00:00:57;13.40;99.90
57218;DHT22;43078;52.972;6.482;2023-04-24T00:03:24;13.40;99.90
57218;DHT22;43078;52.972;6.482;2023-04-24T00:05:50;13.40;99.90
57218;DHT22;43078;52.972;6.482;2023-04-24T00:08:17;13.40;99.90
57218;DHT22;43078;52.972;6.482;2023-04-24T00:10:42;13.30;99.90
57218;DHT22;43078;52.972;6.482;2023-04-24T00:13:08;13.30;99.90
57218;DHT22;43078;52.972;6.482;2023-04-24T00:15:34;13.30;99.90
57218;DHT22;43078;52.972;6.482;2023-04-24T00:17:59;13.30;99.90
57218;DHT22;43078;52.972;6.482;2023-04-24T00:20:27;13.20;99.90
57218;DHT22;43078;52.972;6.482;2023-04-24T00:22:55;13.20;99.90
57218;DHT22;43078;52.972;6.482;2023-04-24T00:25:20;13.20;99.90
57218;DHT22;43078;52.972;6.482;2023-04-24T00:27:46;13.20;99.90
57218;DHT22;43078;52.972;6.482;2023-04-24T00:30:11;13.10;99.90
57218;DHT22;43078;52.972;6.482;2023-04-24T00:32:37;13.10;99.90
57218;DHT22;43078;52.972;6.482;2023-04-24T00:35:03;13.10;99.90
57218;DHT22;43078;52.972;6.482;2023-04-24T00:37:29;13.10;99.90
57218;DHT22;43078;52.972;6.482;2023-04-24T00:39:55;13.10;99.90
57218;DHT22;43078;52.972;6.482;2023-04-24T00:42:20;13.10;99.90
57218;DHT22;43078;52.972;6.482;2023-04-24T00:44:46;13.10;99.90
57218;DHT22;43078;52.972;6.482;2023-04-24T00:47:12;13.10;99.90
57218;DHT22;43078;52.972;6.482;2023-04-24T00:49:38;13.00;99.90
57218;DHT22;43078;52.972;6.482;2023-04-24T00:52:04;13.00;99.90
57218;DHT22;43078;52.972;6.482;2023-04-24T00:54:33;13.00;99.90
57218;DHT22;43078;52.972;6.482;2023-04-24T00:56:58;12.90;99.90
57218;DHT22;43078;52.972;6.482;2023-04-24T00:59:24;12.90;99.90
57218;DHT22;43078;52.972;6.482;2023-04-24T01:01:50;12.90;99.90
57218;DHT22;43078;52.972;6.482;2023-04-24T01:04:17;12.80;99.90
57218;DHT22;43078;52.972;6.482;2023-04-24T01:06:44;12.70;99.90
57218;DHT22;43078;52.972;6.482;2023-04-24T01:09:11;12.70;99.90
57218;DHT22;43078;52.972;6.482;2023-04-24T01:11:37;12.60;99.90
57218;DHT22;43078;52.972;6.482;2023-04-24T01:14:03;12.60;99.90
57218;DHT22;43078;52.972;6.482;2023-04-24T01:16:29;12.50;99.90
57218;DHT22;43078;52.972;6.482;2023-04-24T01:18:55;12.40;99.90
57218;DHT22;43078;52.972;6.482;2023-04-24T01:21:21;12.40;99.90
57218;DHT22;43078;52.972;6.482;2023-04-24T01:23:47;12.30;99.90
57218;DHT22;43078;52.972;6.482;2023-04-24T01:26:14;12.30;99.90
57218;DHT22;43078;52.972;6.482;2023-04-24T01:28:40;12.30;99.90
57218;DHT22;43078;52.972;6.482;2023-04-24T01:31:06;12.30;99.90
57218;DHT22;43078;52.972;6.482;2023-04-24T01:33:33;12.30;99.90
57218;DHT22;43078;52.972;6.482;2023-04-24T01:35:59;12.20;99.90
57218;DHT22;43078;52.972;6.482;2023-04-24T01:38:25;12.20;99.90
57218;DHT22;43078;52.972;6.482;2023-04-24T01:40:51;12.20;99.90
57218;DHT22;43078;52.972;6.482;2023-04-24T01:43:17;12.20;99.90
57218;DHT22;43078;52.972;6.482;2023-04-24T01:45:43;12.10;99.90
57218;DHT22;43078;52.972;6.482;2023-04-24T01:48:09;12.10;99.90
57218;DHT22;43078;52.972;6.482;2023-04-24T01:50:35;12.10;99.90
57218;DHT22;43078;52.972;6.482;2023-04-24T01:53:00;12.10;99.90
57218;DHT22;43078;52.972;6.482;2023-04-24T01:55:26;12.10;99.90
57218;DHT22;43078;52.972;6.482;2023-04-24T01:57:52;12.10;99.90
57218;DHT22;43078;52.972;6.482;2023-04-24T02:00:20;12.00;99.90
57218;DHT22;43078;52.972;6.482;2023-04-24T02:02:46;12.00;99.90
57218;DHT22;43078;52.972;6.482;2023-04-24T02:05:11;12.00;99.90
57218;DHT22;43078;52.972;6.482;2023-04-24T02:07:37;12.00;99.90
57218;DHT22;43078;52.972;6.482;2023-04-24T02:10:03;12.00;99.90
57218;DHT22;43078;52.972;6.482;2023-04-24T02:12:29;12.00;99.90
57218;DHT22;43078;52.972;6.482;2023-04-24T02:14:55;12.00;99.90
57218;DHT22;43078;52.972;6.482;2023-04-24T02:17:21;11.90;99.90
57218;DHT22;43078;52.972;6.482;2023-04-24T02:19:46;11.90;99.90
57218;DHT22;43078;52.972;6.482;2023-04-24T02:22:12;11.90;99.90
57218;DHT22;43078;52.972;6.482;2023-04-24T02:24:38;11.90;99.90
57218;DHT22;43078;52.972;6.482;2023-04-24T02:27:04;11.90;99.90
57218;DHT22;43078;52.972;6.482;2023-04-24T02:29:30;11.90;99.90
57218;DHT22;43078;52.972;6.482;2023-04-24T02:31:56;11.90;99.90
57218;DHT22;43078;52.972;6.482;2023-04-24T02:34:22;11.80;99.90
57218;DHT22;43078;52.972;6.482;2023-04-24T02:36:48;11.80;99.90
57218;DHT22;43078;52.972;6.482;2023-04-24T02:39:14;11.80;99.90
57218;DHT22;43078;52.972;6.482;2023-04-24T02:41:42;11.80;99.90
57218;DHT22;43078;52.972;6.482;2023-04-24T02:44:08;11.70;99.90
57218;DHT22;43078;52.972;6.482;2023-04-24T02:46:33;11.70;99.90
57218;DHT22;43078;52.972;6.482;2023-04-24T02:48:59;11.70;99.90
57218;DHT22;43078;52.972;6.482;2023-04-24T02:51:24;11.70;99.90
57218;DHT22;43078;52.972;6.482;2023-04-24T02:53:50;11.70;99.90
57218;DHT22;43078;52.972;6.482;2023-04-24T02:56:16;11.70;99.90
57218;DHT22;43078;52.972;6.482;2023-04-24T02:58:41;11.60;99.90
57218;DHT22;43078;52.972;6.482;2023-04-24T03:01:08;11.60;99.90
57218;DHT22;43078;52.972;6.482;2023-04-24T03:03:35;11.60;99.90
57218;DHT22;43078;52.972;6.482;2023-04-24T03:06:01;11.60;99.90
57218;DHT22;43078;52.972;6.482;2023-04-24T03:08:27;11.60;99.90
57218;DHT22;43078;52.972;6.482;2023-04-24T03:10:52;11.60;99.90
57218;DHT22;43078;52.972;6.482;2023-04-24T03:13:18;11.50;99.90
57218;DHT22;43078;52.972;6.482;2023-04-24T03:15:44;11.50;99.90
57218;DHT22;43078;52.972;6.482;2023-04-24T03:18:10;11.40;99.90
57218;DHT22;43078;52.972;6.482;2023-04-24T03:20:36;11.40;99.90
57218;DHT22;43078;52.972;6.482;2023-04-24T03:23:03;11.40;99.90
57218;DHT22;43078;52.972;6.482;2023-04-24T03:25:28;11.40;99.90
57218;DHT22;43078;52.972;6.482;2023-04-24T03:27:54;11.40;99.90
57218;DHT22;43078;52.972;6.482;2023-04-24T03:30:20;11.40;99.90
57218;DHT22;43078;52.972;6.482;2023-04-24T03:32:46;11.30;99.90
57218;DHT22;43078;52.972;6.482;2023-04-24T03:35:11;11.30;99.90
57218;DHT22;43078;52.972;6.482;2023-04-24T03:37:37;11.30;99.90
57218;DHT22;43078;52.972;6.482;2023-04-24T03:40:02;11.20;99.90
57218;DHT22;43078;52.972;6.482;2023-04-24T03:42:28;11.20;99.90
57218;DHT22;43078;52.972;6.482;2023-04-24T03:44:54;11.20;99.90
57218;DHT22;43078;52.972;6.482;2023-04-24T03:47:19;11.20;99.90
57218;DHT22;43078;52.972;6.482;2023-04-24T03:49:45;11.20;99.90
57218;DHT22;43078;52.972;6.482;2023-04-24T03:52:11;11.20;99.90
57218;DHT22;43078;52.972;6.482;2023-04-24T03:54:36;11.10;99.90
57218;DHT22;43078;52.972;6.482;2023-04-24T03:57:02;11.10;99.90
57218;DHT22;43078;52.972;6.482;2023-04-24T03:59:28;11.10;99.90
57218;DHT22;43078;52.972;6.482;2023-04-24T04:01:54;11.00;99.90
57218;DHT22;43078;52.972;6.482;2023-04-24T04:04:20;11.10;99.90
57218;DHT22;43078;52.972;6.482;2023-04-24T04:06:45;11.00;99.90
57218;DHT22;43078;52.972;6.482;2023-04-24T04:09:12;11.00;99.90
57218;DHT22;43078;52.972;6.482;2023-04-24T04:11:37;11.00;99.90
57218;DHT22;43078;52.972;6.482;2023-04-24T04:14:03;11.00;99.90
57218;DHT22;43078;52.972;6.482;2023-04-24T04:16:29;11.00;99.90
57218;DHT22;43078;52.972;6.482;2023-04-24T04:18:54;11.00;99.90
57218;DHT22;43078;52.972;6.482;2023-04-24T04:21:20;11.00;99.90
57218;DHT22;43078;52.972;6.482;2023-04-24T04:23:46;11.00;99.90
57218;DHT22;43078;52.972;6.482;2023-04-24T04:26:12;10.90;99.90
57218;DHT22;43078;52.972;6.482;2023-04-24T04:28:38;11.00;99.90
57218;DHT22;43078;52.972;6.482;2023-04-24T04:31:05;10.90;99.90
57218;DHT22;43078;52.972;6.482;2023-04-24T04:33:30;11.00;99.90
57218;DHT22;43078;52.972;6.482;2023-04-24T04:35:56;11.00;99.90
57218;DHT22;43078;52.972;6.482;2023-04-24T04:38:22;10.90;99.90
57218;DHT22;43078;52.972;6.482;2023-04-24T04:40:48;11.00;99.90
57218;DHT22;43078;52.972;6.482;2023-04-24T04:43:14;10.90;99.90
57218;DHT22;43078;52.972;6.482;2023-04-24T04:45:40;10.90;99.90
57218;DHT22;43078;52.972;6.482;2023-04-24T04:48:08;10.90;99.90
57218;DHT22;43078;52.972;6.482;2023-04-24T04:50:35;10.90;99.90
57218;DHT22;43078;52.972;6.482;2023-04-24T04:53:00;10.80;99.90
57218;DHT22;43078;52.972;6.482;2023-04-24T04:55:26;10.80;99.90
57218;DHT22;43078;52.972;6.482;2023-04-24T04:57:52;10.80;99.90
57218;DHT22;43078;52.972;6.482;2023-04-24T05:00:18;10.70;99.90
57218;DHT22;43078;52.972;6.482;2023-04-24T05:02:44;10.70;99.90
57218;DHT22;43078;52.972;6.482;2023-04-24T05:05:10;10.80;99.90
57218;DHT22;43078;52.972;6.482;2023-04-24T05:07:36;10.70;99.90
57218;DHT22;43078;52.972;6.482;2023-04-24T05:10:01;10.70;99.90
57218;DHT22;43078;52.972;6.482;2023-04-24T05:12:27;10.70;99.90
57218;DHT22;43078;52.972;6.482;2023-04-24T05:14:53;10.70;99.90
57218;DHT22;43078;52.972;6.482;2023-04-24T05:17:18;10.70;99.90
57218;DHT22;43078;52.972;6.482;2023-04-24T05:19:44;10.70;99.90
57218;DHT22;43078;52.972;6.482;2023-04-24T05:22:10;10.70;99.90
57218;DHT22;43078;52.972;6.482;2023-04-24T05:24:37;10.70;99.90
57218;DHT22;43078;52.972;6.482;2023-04-24T05:27:03;10.70;99.90
57218;DHT22;43078;52.972;6.482;2023-04-24T05:29:32;10.70;99.90
57218;DHT22;43078;52.972;6.482;2023-04-24T05:31:59;10.70;99.90
57218;DHT22;43078;52.972;6.482;2023-04-24T05:34:24;10.70;99.90
57218;DHT22;43078;52.972;6.482;2023-04-24T05:36:50;10.70;99.90
57218;DHT22;43078;52.972;6.482;2023-04-24T05:39:16;10.80;99.90
57218;DHT22;43078;52.972;6.482;2023-04-24T05:41:42;10.80;99.90
57218;DHT22;43078;52.972;6.482;2023-04-24T05:44:08;10.80;99.90
57218;DHT22;43078;52.972;6.482;2023-04-24T05:46:34;10.90;99.90
57218;DHT22;43078;52.972;6.482;2023-04-24T05:49:00;10.90;99.90
57218;DHT22;43078;52.972;6.482;2023-04-24T05:51:25;10.90;99.90
57218;DHT22;43078;52.972;6.482;2023-04-24T05:53:51;10.90;99.90
57218;DHT22;43078;52.972;6.482;2023-04-24T05:56:17;10.90;99.90
57218;DHT22;43078;52.972;6.482;2023-04-24T05:58:43;11.00;99.90
57218;DHT22;43078;52.972;6.482;2023-04-24T06:01:09;10.90;99.90
57218;DHT22;43078;52.972;6.482;2023-04-24T06:03:35;11.00;99.90
57218;DHT22;43078;52.972;6.482;2023-04-24T06:06:00;11.00;99.90
57218;DHT22;43078;52.972;6.482;2023-04-24T06:08:26;11.00;99.90
57218;DHT22;43078;52.972;6.482;2023-04-24T06:10:52;11.00;99.90
57218;DHT22;43078;52.972;6.482;2023-04-24T06:13:17;11.10;99.90
57218;DHT22;43078;52.972;6.482;2023-04-24T06:15:43;11.10;99.90
57218;DHT22;43078;52.972;6.482;2023-04-24T06:18:11;11.10;99.90
57218;DHT22;43078;52.972;6.482;2023-04-24T06:20:38;11.10;99.90
57218;DHT22;43078;52.972;6.482;2023-04-24T06:23:03;11.00;99.90
57218;DHT22;43078;52.972;6.482;2023-04-24T06:25:29;11.00;99.90
57218;DHT22;43078;52.972;6.482;2023-04-24T06:27:55;11.00;99.90
57218;DHT22;43078;52.972;6.482;2023-04-24T06:30:21;11.00;99.90
57218;DHT22;43078;52.972;6.482;2023-04-24T06:32:47;11.00;99.90
57218;DHT22;43078;52.972;6.482;2023-04-24T06:35:12;11.00;99.90
57218;DHT22;43078;52.972;6.482;2023-04-24T06:37:42;11.00;99.90
57218;DHT22;43078;52.972;6.482;2023-04-24T06:40:09;11.00;99.90
57218;DHT22;43078;52.972;6.482;2023-04-24T06:42:35;11.00;99.90
57218;DHT22;43078;52.972;6.482;2023-04-24T06:45:01;11.00;99.90
57218;DHT22;43078;52.972;6.482;2023-04-24T06:47:27;10.90;99.90
57218;DHT22;43078;52.972;6.482;2023-04-24T06:49:53;11.00;99.90
57218;DHT22;43078;52.972;6.482;2023-04-24T06:52:19;11.00;99.90
57218;DHT22;43078;52.972;6.482;2023-04-24T06:54:45;11.00;99.90
57218;DHT22;43078;52.972;6.482;2023-04-24T06:57:11;11.00;99.90
57218;DHT22;43078;52.972;6.482;2023-04-24T06:59:37;11.00;99.90
57218;DHT22;43078;52.972;6.482;2023-04-24T07:02:03;11.00;99.90
57218;DHT22;43078;52.972;6.482;2023-04-24T07:04:29;11.00;99.90
57218;DHT22;43078;52.972;6.482;2023-04-24T07:06:56;11.00;99.90
57218;DHT22;43078;52.972;6.482;2023-04-24T07:09:24;11.00;99.90
57218;DHT22;43078;52.972;6.482;2023-04-24T07:11:51;11.00;99.90
57218;DHT22;43078;52.972;6.482;2023-04-24T07:14:17;11.00;99.90
57218;DHT22;43078;52.972;6.482;2023-04-24T07:16:42;11.00;99.90
57218;DHT22;43078;52.972;6.482;2023-04-24T07:19:08;11.00;99.90
57218;DHT22;43078;52.972;6.482;2023-04-24T07:21:34;11.00;99.90
57218;DHT22;43078;52.972;6.482;2023-04-24T07:24:00;11.00;99.90
57218;DHT22;43078;52.972;6.482;2023-04-24T07:26:28;10.90;99.90
57218;DHT22;43078;52.972;6.482;2023-04-24T07:28:54;11.00;99.90
57218;DHT22;43078;52.972;6.482;2023-04-24T07:31:20;11.00;99.90
57218;DHT22;43078;52.972;6.482;2023-04-24T07:33:46;10.90;99.90
57218;DHT22;43078;52.972;6.482;2023-04-24T07:36:12;10.90;99.90
57218;DHT22;43078;52.972;6.482;2023-04-24T07:38:45;10.90;99.90
57218;DHT22;43078;52.972;6.482;2023-04-24T07:41:12;10.90;99.90
57218;DHT22;43078;52.972;6.482;2023-04-24T07:43:37;10.90;99.90
57218;DHT22;43078;52.972;6.482;2023-04-24T07:46:03;10.80;99.90
57218;DHT22;43078;52.972;6.482;2023-04-24T07:48:29;10.80;99.90
57218;DHT22;43078;52.972;6.482;2023-04-24T07:50:55;10.80;99.90
57218;DHT22;43078;52.972;6.482;2023-04-24T07:53:20;10.80;99.90
57218;DHT22;43078;52.972;6.482;2023-04-24T07:55:46;10.80;99.90
57218;DHT22;43078;52.972;6.482;2023-04-24T07:58:11;10.80;99.90
57218;DHT22;43078;52.972;6.482;2023-04-24T08:00:37;10.80;99.90
57218;DHT22;43078;52.972;6.482;2023-04-24T08:03:03;10.80;99.90
57218;DHT22;43078;52.972;6.482;2023-04-24T08:05:29;10.80;99.90
57218;DHT22;43078;52.972;6.482;2023-04-24T08:07:55;10.80;99.90
57218;DHT22;43078;52.972;6.482;2023-04-24T08:10:21;10.80;99.90
57218;DHT22;43078;52.972;6.482;2023-04-24T08:12:47;10.80;99.90
57218;DHT22;43078;52.972;6.482;2023-04-24T08:15:13;10.80;99.90
57218;DHT22;43078;52.972;6.482;2023-04-24T08:17:38;10.70;99.90
57218;DHT22;43078;52.972;6.482;2023-04-24T08:20:04;10.70;99.90
57218;DHT22;43078;52.972;6.482;2023-04-24T08:22:31;10.70;99.90
57218;DHT22;43078;52.972;6.482;2023-04-24T08:24:59;10.70;99.90
57218;DHT22;43078;52.972;6.482;2023-04-24T08:27:26;10.70;99.90
57218;DHT22;43078;52.972;6.482;2023-04-24T08:29:53;10.70;99.90
57218;DHT22;43078;52.972;6.482;2023-04-24T08:32:19;10.70;99.90
57218;DHT22;43078;52.972;6.482;2023-04-24T08:34:44;10.70;99.90
57218;DHT22;43078;52.972;6.482;2023-04-24T08:37:10;10.70;99.90
57218;DHT22;43078;52.972;6.482;2023-04-24T08:39:37;10.70;99.90
57218;DHT22;43078;52.972;6.482;2023-04-24T08:42:04;10.60;99.90
57218;DHT22;43078;52.972;6.482;2023-04-24T08:44:33;10.60;99.90
57218;DHT22;43078;52.972;6.482;2023-04-24T08:47:01;10.60;99.90
57218;DHT22;43078;52.972;6.482;2023-04-24T08:49:28;10.60;99.90
57218;DHT22;43078;52.972;6.482;2023-04-24T08:51:54;10.60;99.90
57218;DHT22;43078;52.972;6.482;2023-04-24T08:54:21;10.60;99.90
57218;DHT22;43078;52.972;6.482;2023-04-24T08:56:47;10.60;99.90
57218;DHT22;43078;52.972;6.482;2023-04-24T08:59:15;10.50;99.90
57218;DHT22;43078;52.972;6.482;2023-04-24T09:01:41;10.50;99.90
57218;DHT22;43078;52.972;6.482;2023-04-24T09:04:08;10.50;99.90
57218;DHT22;43078;52.972;6.482;2023-04-24T09:06:35;10.40;99.90
57218;DHT22;43078;52.972;6.482;2023-04-24T09:09:02;10.40;99.90
57218;DHT22;43078;52.972;6.482;2023-04-24T09:11:30;10.40;99.90
57218;DHT22;43078;52.972;6.482;2023-04-24T09:13:56;10.40;99.90
57218;DHT22;43078;52.972;6.482;2023-04-24T09:16:22;10.40;99.90
57218;DHT22;43078;52.972;6.482;2023-04-24T09:18:50;10.30;99.90
57218;DHT22;43078;52.972;6.482;2023-04-24T09:21:15;10.40;99.90
57218;DHT22;43078;52.972;6.482;2023-04-24T09:23:41;10.30;99.90
57218;DHT22;43078;52.972;6.482;2023-04-24T09:26:09;10.40;99.90
57218;DHT22;43078;52.972;6.482;2023-04-24T09:28:37;10.40;99.90
57218;DHT22;43078;52.972;6.482;2023-04-24T09:33:29;10.40;99.90
57218;DHT22;43078;52.972;6.482;2023-04-24T09:35:55;10.40;99.90
57218;DHT22;43078;52.972;6.482;2023-04-24T09:38:34;10.40;99.90
57218;DHT22;43078;52.972;6.482;2023-04-24T09:41:05;10.40;99.90
57218;DHT22;43078;52.972;6.482;2023-04-24T09:43:31;10.30;99.90
57218;DHT22;43078;52.972;6.482;2023-04-24T09:45:58;10.40;99.90
57218;DHT22;43078;52.972;6.482;2023-04-24T09:48:34;10.40;99.90
57218;DHT22;43078;52.972;6.482;2023-04-24T09:51:05;10.30;99.90
57218;DHT22;43078;52.972;6.482;2023-04-24T09:53:32;10.30;99.90
57218;DHT22;43078;52.972;6.482;2023-04-24T09:56:11;10.30;99.90
57218;DHT22;43078;52.972;6.482;2023-04-24T09:58:38;10.30;99.90
57218;DHT22;43078;52.972;6.482;2023-04-24T10:01:05;10.30;99.90
57218;DHT22;43078;52.972;6.482;2023-04-24T10:03:34;10.30;99.90
57218;DHT22;43078;52.972;6.482;2023-04-24T10:06:01;10.30;99.90
57218;DHT22;43078;52.972;6.482;2023-04-24T10:08:33;10.30;99.90
57218;DHT22;43078;52.972;6.482;2023-04-24T10:10:59;10.30;99.90
57218;DHT22;43078;52.972;6.482;2023-04-24T10:13:25;10.30;99.90
57218;DHT22;43078;52.972;6.482;2023-04-24T10:15:51;10.30;99.90
57218;DHT22;43078;52.972;6.482;2023-04-24T10:18:17;10.40;99.90
57218;DHT22;43078;52.972;6.482;2023-04-24T10:20:45;10.40;99.90
57218;DHT22;43078;52.972;6.482;2023-04-24T10:23:10;10.40;99.90
57218;DHT22;43078;52.972;6.482;2023-04-24T10:25:37;10.40;99.90
57218;DHT22;43078;52.972;6.482;2023-04-24T10:28:04;10.40;99.90
57218;DHT22;43078;52.972;6.482;2023-04-24T10:30:33;10.40;99.90
57218;DHT22;43078;52.972;6.482;2023-04-24T10:33:04;10.40;99.90
57218;DHT22;43078;52.972;6.482;2023-04-24T10:35:31;10.40;99.90
57218;DHT22;43078;52.972;6.482;2023-04-24T10:38:01;10.50;99.90
57218;DHT22;43078;52.972;6.482;2023-04-24T10:40:33;10.40;99.90
57218;DHT22;43078;52.972;6.482;2023-04-24T10:42:59;10.40;99.90
57218;DHT22;43078;52.972;6.482;2023-04-24T10:45:27;10.40;99.90
57218;DHT22;43078;52.972;6.482;2023-04-24T10:47:59;10.40;99.90
57218;DHT22;43078;52.972;6.482;2023-04-24T10:50:28;10.40;99.90
57218;DHT22;43078;52.972;6.482;2023-04-24T10:53:06;10.40;99.90
57218;DHT22;43078;52.972;6.482;2023-04-24T10:55:51;10.40;99.90
57218;DHT22;43078;52.972;6.482;2023-04-24T10:58:24;10.40;99.90
57218;DHT22;43078;52.972;6.482;2023-04-24T11:00:59;10.40;99.90
57218;DHT22;43078;52.972;6.482;2023-04-24T11:03:30;10.40;99.90
57218;DHT22;43078;52.972;6.482;2023-04-24T11:05:57;10.40;99.90
57218;DHT22;43078;52.972;6.482;2023-04-24T11:08:25;10.40;99.90
57218;DHT22;43078;52.972;6.482;2023-04-24T11:11:14;10.40;99.90
57218;DHT22;43078;52.972;6.482;2023-04-24T11:16:32;10.40;99.90
57218;DHT22;43078;52.972;6.482;2023-04-24T11:29:46;10.40;99.90
57218;DHT22;43078;52.972;6.482;2023-04-24T11:32:23;10.40;99.90
57218;DHT22;43078;52.972;6.482;2023-04-24T11:34:54;10.40;99.90
57218;DHT22;43078;52.972;6.482;2023-04-24T11:37:22;10.40;99.90
57218;DHT22;43078;52.972;6.482;2023-04-24T11:39:51;10.40;99.90
57218;DHT22;43078;52.972;6.482;2023-04-24T11:42:17;10.40;99.90
57218;DHT22;43078;52.972;6.482;2023-04-24T11:44:43;10.40;99.90
57218;DHT22;43078;52.972;6.482;2023-04-24T11:47:09;10.40;99.90
57218;DHT22;43078;52.972;6.482;2023-04-24T11:49:37;10.50;99.90
57218;DHT22;43078;52.972;6.482;2023-04-24T11:52:04;10.40;99.90
57218;DHT22;43078;52.972;6.482;2023-04-24T11:54:30;10.40;99.90
57218;DHT22;43078;52.972;6.482;2023-04-24T11:56:56;10.40;99.90
57218;DHT22;43078;52.972;6.482;2023-04-24T11:59:22;10.40;99.90
57218;DHT22;43078;52.972;6.482;2023-04-24T12:01:48;10.40;99.90
57218;DHT22;43078;52.972;6.482;2023-04-24T12:04:16;10.30;99.90
57218;DHT22;43078;52.972;6.482;2023-04-24T12:07:04;10.30;99.90
57218;DHT22;43078;52.972;6.482;2023-04-24T12:09:47;10.30;99.90
57218;DHT22;43078;52.972;6.482;2023-04-24T12:12:14;10.30;99.90
57218;DHT22;43078;52.972;6.482;2023-04-24T12:14:49;10.20;99.90
57218;DHT22;43078;52.972;6.482;2023-04-24T12:17:17;10.30;99.90
57218;DHT22;43078;52.972;6.482;2023-04-24T12:19:47;10.30;99.90
57218;DHT22;43078;52.972;6.482;2023-04-24T12:22:13;10.30;99.90
57218;DHT22;43078;52.972;6.482;2023-04-24T12:25:02;10.30;99.90
57218;DHT22;43078;52.972;6.482;2023-04-24T12:27:32;10.30;99.90
57218;DHT22;43078;52.972;6.482;2023-04-24T12:30:03;10.30;99.90
57218;DHT22;43078;52.972;6.482;2023-04-24T12:32:29;10.30;99.90
57218;DHT22;43078;52.972;6.482;2023-04-24T12:34:56;10.40;99.90
57218;DHT22;43078;52.972;6.482;2023-04-24T12:37:25;10.40;99.90
57218;DHT22;43078;52.972;6.482;2023-04-24T12:39:59;10.40;99.90
57218;DHT22;43078;52.972;6.482;2023-04-24T12:42:27;10.40;99.90
57218;DHT22;43078;52.972;6.482;2023-04-24T12:44:57;10.40;99.90
57218;DHT22;43078;52.972;6.482;2023-04-24T12:47:24;10.30;99.90
57218;DHT22;43078;52.972;6.482;2023-04-24T12:49:50;10.40;99.90
57218;DHT22;43078;52.972;6.482;2023-04-24T12:52:21;10.40;99.90
57218;DHT22;43078;52.972;6.482;2023-04-24T12:54:47;10.40;99.90
57218;DHT22;43078;52.972;6.482;2023-04-24T12:57:12;10.40;99.90
57218;DHT22;43078;52.972;6.482;2023-04-24T12:59:38;10.30;99.90
57218;DHT22;43078;52.972;6.482;2023-04-24T13:02:05;10.40;99.90
57218;DHT22;43078;52.972;6.482;2023-04-24T13:04:31;10.40;99.90
57218;DHT22;43078;52.972;6.482;2023-04-24T13:06:57;10.30;99.90
57218;DHT22;43078;52.972;6.482;2023-04-24T13:09:23;10.30;99.90
57218;DHT22;43078;52.972;6.482;2023-04-24T13:11:49;10.30;99.90
57218;DHT22;43078;52.972;6.482;2023-04-24T13:14:15;10.30;99.90
57218;DHT22;43078;52.972;6.482;2023-04-24T13:16:41;10.30;99.90
57218;DHT22;43078;52.972;6.482;2023-04-24T13:19:06;10.30;99.90
57218;DHT22;43078;52.972;6.482;2023-04-24T13:21:32;10.30;99.90
57218;DHT22;43078;52.972;6.482;2023-04-24T13:23:58;10.30;99.90
57218;DHT22;43078;52.972;6.482;2023-04-24T13:26:24;10.30;99.90
57218;DHT22;43078;52.972;6.482;2023-04-24T13:28:50;10.30;99.90
57218;DHT22;43078;52.972;6.482;2023-04-24T13:31:15;10.30;99.90
57218;DHT22;43078;52.972;6.482;2023-04-24T13:33:41;10.30;99.90
57218;DHT22;43078;52.972;6.482;2023-04-24T13:36:07;10.30;99.90
57218;DHT22;43078;52.972;6.482;2023-04-24T13:38:34;10.30;99.90
57218;DHT22;43078;52.972;6.482;2023-04-24T13:41:00;10.30;99.90
57218;DHT22;43078;52.972;6.482;2023-04-24T13:43:25;10.30;99.90
57218;DHT22;43078;52.972;6.482;2023-04-24T13:45:51;10.30;99.80
57218;DHT22;43078;52.972;6.482;2023-04-24T13:48:17;10.30;99.80
57218;DHT22;43078;52.972;6.482;2023-04-24T13:50:43;10.30;99.60
57218;DHT22;43078;52.972;6.482;2023-04-24T13:53:09;10.30;99.70
57218;DHT22;43078;52.972;6.482;2023-04-24T13:55:35;10.30;99.40
57218;DHT22;43078;52.972;6.482;2023-04-24T13:58:02;10.30;99.30
57218;DHT22;43078;52.972;6.482;2023-04-24T14:00:28;10.40;99.40
57218;DHT22;43078;52.972;6.482;2023-04-24T14:02:53;10.40;99.30
57218;DHT22;43078;52.972;6.482;2023-04-24T14:05:19;10.40;99.20
57218;DHT22;43078;52.972;6.482;2023-04-24T14:07:46;10.30;99.20
57218;DHT22;43078;52.972;6.482;2023-04-24T14:10:12;10.40;99.30
57218;DHT22;43078;52.972;6.482;2023-04-24T14:12:37;10.40;99.40
57218;DHT22;43078;52.972;6.482;2023-04-24T14:15:04;10.30;99.50
57218;DHT22;43078;52.972;6.482;2023-04-24T14:17:30;10.30;99.50
57218;DHT22;43078;52.972;6.482;2023-04-24T14:19:56;10.30;99.30
57218;DHT22;43078;52.972;6.482;2023-04-24T14:22:22;10.30;99.30
57218;DHT22;43078;52.972;6.482;2023-04-24T14:24:48;10.30;99.20
57218;DHT22;43078;52.972;6.482;2023-04-24T14:27:13;10.30;99.20
57218;DHT22;43078;52.972;6.482;2023-04-24T14:29:39;10.30;99.00
57218;DHT22;43078;52.972;6.482;2023-04-24T14:32:05;10.20;99.10
57218;DHT22;43078;52.972;6.482;2023-04-24T14:34:30;10.20;99.40
57218;DHT22;43078;52.972;6.482;2023-04-24T14:36:56;10.10;99.20
57218;DHT22;43078;52.972;6.482;2023-04-24T14:39:21;10.10;99.20
57218;DHT22;43078;52.972;6.482;2023-04-24T14:41:47;10.00;99.20
57218;DHT22;43078;52.972;6.482;2023-04-24T14:44:13;10.00;99.10
57218;DHT22;43078;52.972;6.482;2023-04-24T14:46:38;9.90;99.20
57218;DHT22;43078;52.972;6.482;2023-04-24T14:49:04;10.00;99.20
57218;DHT22;43078;52.972;6.482;2023-04-24T14:51:30;10.00;99.40
57218;DHT22;43078;52.972;6.482;2023-04-24T14:53:56;10.00;99.40
57218;DHT22;43078;52.972;6.482;2023-04-24T14:56:23;10.00;99.90
57218;DHT22;43078;52.972;6.482;2023-04-24T14:58:48;10.00;99.90
57218;DHT22;43078;52.972;6.482;2023-04-24T15:01:14;10.10;99.90
57218;DHT22;43078;52.972;6.482;2023-04-24T15:03:40;10.10;99.90
57218;DHT22;43078;52.972;6.482;2023-04-24T15:06:06;10.00;99.90
57218;DHT22;43078;52.972;6.482;2023-04-24T15:08:31;10.10;99.90
57218;DHT22;43078;52.972;6.482;2023-04-24T15:10:57;10.10;99.90
57218;DHT22;43078;52.972;6.482;2023-04-24T15:13:23;10.00;99.90
57218;DHT22;43078;52.972;6.482;2023-04-24T15:15:49;10.00;99.90
57218;DHT22;43078;52.972;6.482;2023-04-24T15:18:14;10.00;99.90
57218;DHT22;43078;52.972;6.482;2023-04-24T15:20:40;10.00;99.90
57218;DHT22;43078;52.972;6.482;2023-04-24T15:23:08;10.00;99.90
57218;DHT22;43078;52.972;6.482;2023-04-24T15:25:34;10.10;99.90
57218;DHT22;43078;52.972;6.482;2023-04-24T15:27:59;10.00;99.90
57218;DHT22;43078;52.972;6.482;2023-04-24T15:30:26;10.10;99.90
57218;DHT22;43078;52.972;6.482;2023-04-24T15:32:51;10.00;99.90
57218;DHT22;43078;52.972;6.482;2023-04-24T15:35:17;10.10;99.90
57218;DHT22;43078;52.972;6.482;2023-04-24T15:37:43;10.10;99.90
57218;DHT22;43078;52.972;6.482;2023-04-24T15:40:09;10.00;99.90
57218;DHT22;43078;52.972;6.482;2023-04-24T15:42:36;10.10;99.90